This is the latest recevied weather packets stored in our database for station/object N4CVG. If no packets are shown the sender has not sent any weather packets the latest 10 day(s).
| Time | Temp. | Humidity | Pressure | Rain* | Wind** | Luminosity | Snow |
|---|---|---|---|---|---|---|---|
| 1777761021 | 12.22° C | 54% | 1016.4 hPa | 0 mm | - | - | - |
| 1777759222 | 11.67° C | 58% | 1016.3 hPa | 0 mm | - | - | - |
| 1777758602 | 11.67° C | 55% | 1016.2 hPa | 0 mm | - | - | - |
| 1777755600 | 12.22° C | 57% | 1016 hPa | 0 mm | - | - | - |
| 1777753821 | 12.22° C | 56% | 1016.1 hPa | 0 mm | - | - | - |
| 1777753201 | 12.22° C | 58% | 1016.2 hPa | 0 mm | - | - | - |
| 1777750802 | 12.78° C | 53% | 1016.4 hPa | 0 mm | - | - | - |
| 1777749600 | 12.78° C | 55% | 1016.5 hPa | 0 mm | - | - | - |
| 1777747204 | 12.22° C | 58% | 1016.8 hPa | 0 mm | - | - | - |
| 1777745400 | 12.78° C | 54% | 1016.9 hPa | 0 mm | - | - | - |
| 1777742400 | 13.33° C | 52% | 1016.9 hPa | 0 mm | - | - | - |
| 1777741800 | 13.89° C | 50% | 1016.9 hPa | 0 mm | - | - | - |
| 1777738800 | 12.78° C | 55% | 1017.2 hPa | 0 mm | - | - | - |
| 1777734621 | 12.22° C | 59% | 1017.4 hPa | 0 mm | - | - | - |
| 1777728001 | 8.33° C | 78% | 1017 hPa | 0 mm | - | - | - |
| 1777726201 | 6.67° C | 82% | 1017.2 hPa | 0 mm | - | - | - |
| 1777722600 | 5° C | 89% | 1016.9 hPa | 0 mm | - | - | - |
| 1777720801 | 3.89° C | 90% | 1016.7 hPa | 0 mm | - | - | - |
| 1777719001 | 3.89° C | 88% | 1016.4 hPa | 0 mm | - | - | - |
| 1777716601 | 3.89° C | 87% | 1016.3 hPa | 0 mm | - | - | - |
| 1777714800 | 4.44° C | 88% | 1016.3 hPa | 0 mm | - | - | - |
| 1777711801 | 4.44° C | 87% | 1016.2 hPa | 0 mm | - | - | - |
| 1777705201 | 5.56° C | 83% | 1016.3 hPa | 0 mm | - | - | - |
| 1777698601 | 6.11° C | 80% | 1016.7 hPa | 0 mm | - | - | - |
| 1777695601 | 6.67° C | 78% | 1017 hPa | 0 mm | - | - | - |
* Rain latest hour (hover to see other rain measurements)
** Current wind speed in m/s (hover to see current wind gust speed)